createdAt,value
2018-08-14T00:00:28.584Z,1.73
2018-08-14T00:02:57.811Z,2.03
2018-08-14T00:05:26.474Z,2.33
2018-08-14T00:07:54.887Z,1.60
2018-08-14T00:10:23.306Z,1.70
2018-08-14T00:12:51.645Z,1.33
2018-08-14T00:15:20.126Z,2.90
2018-08-14T00:17:49.412Z,1.40
2018-08-14T00:20:19.440Z,2.00
2018-08-14T00:22:48.311Z,1.83
2018-08-14T00:25:16.752Z,1.80
2018-08-14T00:27:45.523Z,2.03
2018-08-14T00:30:19.241Z,1.33
2018-08-14T00:32:47.869Z,1.70
2018-08-14T00:35:16.591Z,1.37
2018-08-14T00:37:45.258Z,1.47
2018-08-14T00:40:18.739Z,2.40
2018-08-14T00:42:48.148Z,5.27
2018-08-14T00:45:18.531Z,1.83
2018-08-14T00:47:47.238Z,2.33
2018-08-14T00:50:16.292Z,1.77
2018-08-14T00:52:45.153Z,1.60
2018-08-14T00:55:14.620Z,1.70
2018-08-14T00:57:43.676Z,3.03
2018-08-14T01:00:18.964Z,1.70
2018-08-14T01:02:48.002Z,3.07
2018-08-14T01:05:16.970Z,1.63
2018-08-14T01:07:45.586Z,1.40
2018-08-14T01:10:14.591Z,2.13
2018-08-14T01:12:47.675Z,1.60
2018-08-14T01:15:17.696Z,1.73
2018-08-14T01:17:48.340Z,1.60
2018-08-14T01:20:16.681Z,1.50
2018-08-14T01:22:46.096Z,2.13
2018-08-14T01:25:14.925Z,2.47
2018-08-14T01:27:43.264Z,2.07
2018-08-14T01:30:22.190Z,1.70
2018-08-14T01:32:50.497Z,2.70
2018-08-14T01:35:18.960Z,1.40
2018-08-14T01:37:47.421Z,2.20
2018-08-14T01:40:15.764Z,1.77
2018-08-14T01:42:44.091Z,1.80
2018-08-14T01:45:13.710Z,1.67
2018-08-14T01:47:42.277Z,1.60
2018-08-14T01:50:14.244Z,1.90
2018-08-14T01:52:42.689Z,1.60
2018-08-14T01:55:11.153Z,1.67
2018-08-14T01:57:39.549Z,1.80
2018-08-14T02:00:08.499Z,1.73
2018-08-14T02:02:37.123Z,1.80
2018-08-14T02:05:06.953Z,2.67
2018-08-14T02:07:35.369Z,3.50
2018-08-14T02:10:04.730Z,2.00
2018-08-14T02:12:33.099Z,2.40
2018-08-14T02:15:01.442Z,1.63
2018-08-14T02:17:29.829Z,2.07
2018-08-14T02:19:58.215Z,1.73
2018-08-14T02:22:26.558Z,7.17
2018-08-14T02:24:54.927Z,2.10
2018-08-14T02:27:23.375Z,2.33
2018-08-14T02:29:51.757Z,2.10
2018-08-14T02:32:20.368Z,4.03
2018-08-14T02:34:48.786Z,1.73
2018-08-14T02:37:17.197Z,2.47
2018-08-14T02:39:45.595Z,2.53
2018-08-14T02:42:13.914Z,1.97
2018-08-14T02:44:42.318Z,2.20
2018-08-14T02:47:10.729Z,1.70
2018-08-14T02:49:39.137Z,2.10
2018-08-14T02:52:07.659Z,2.00
2018-08-14T02:54:36.047Z,1.87
2018-08-14T02:57:04.395Z,2.47
2018-08-14T02:59:32.842Z,2.57
2018-08-14T03:02:01.208Z,3.03
2018-08-14T03:04:29.598Z,2.67
2018-08-14T03:06:58.053Z,1.47
2018-08-14T03:09:26.417Z,1.93
2018-08-14T03:11:54.823Z,3.73
2018-08-14T03:14:23.196Z,2.03
2018-08-14T03:16:51.672Z,3.63
2018-08-14T03:19:20.112Z,2.20
2018-08-14T03:21:48.499Z,1.70
2018-08-14T03:24:16.797Z,3.17
2018-08-14T03:26:45.132Z,1.60
2018-08-14T03:29:13.444Z,1.90
2018-08-14T03:31:41.828Z,2.03
2018-08-14T03:34:10.329Z,3.33
2018-08-14T03:36:38.735Z,2.93
2018-08-14T03:39:09.582Z,3.93
2018-08-14T03:41:38.002Z,3.83
2018-08-14T03:44:06.319Z,4.20
2018-08-14T03:46:34.707Z,1.77
2018-08-14T03:49:03.129Z,2.00
2018-08-14T03:51:31.539Z,2.03
2018-08-14T03:53:59.947Z,1.67
2018-08-14T03:56:28.420Z,2.67
2018-08-14T03:58:56.688Z,1.90
2018-08-14T04:01:24.977Z,3.70
2018-08-14T04:03:53.605Z,3.17
2018-08-14T04:06:21.963Z,1.87
2018-08-14T04:08:50.332Z,3.13
2018-08-14T04:11:18.665Z,2.10
2018-08-14T04:13:47.247Z,2.43
2018-08-14T04:16:15.905Z,2.83
2018-08-14T04:18:44.332Z,2.00
2018-08-14T04:21:12.743Z,3.73
2018-08-14T04:23:41.073Z,2.33
2018-08-14T04:26:09.406Z,2.10
2018-08-14T04:28:37.747Z,3.70
2018-08-14T04:31:06.205Z,8.57
2018-08-14T04:36:33.812Z,2.50
2018-08-14T04:39:02.211Z,3.40
2018-08-14T04:41:30.534Z,2.47
2018-08-14T04:43:58.853Z,1.90
2018-08-14T04:46:27.149Z,2.60
2018-08-14T04:48:55.596Z,2.30
2018-08-14T04:51:23.948Z,3.93
2018-08-14T04:53:52.349Z,4.00
2018-08-14T04:56:20.755Z,3.17
2018-08-14T04:58:49.086Z,2.40
2018-08-14T05:01:17.493Z,3.47
2018-08-14T05:03:46.115Z,4.20
2018-08-14T05:06:14.462Z,5.53
2018-08-14T05:08:42.839Z,4.47
2018-08-14T05:11:12.068Z,3.83
2018-08-14T05:13:41.585Z,7.03
2018-08-14T05:16:10.286Z,4.67
2018-08-14T05:18:39.734Z,5.37
2018-08-14T05:21:08.073Z,3.43
2018-08-14T05:23:36.428Z,2.73
2018-08-14T05:26:04.784Z,4.60
2018-08-14T05:28:33.244Z,2.30
2018-08-14T05:31:01.557Z,4.23
2018-08-14T05:33:29.918Z,4.70
2018-08-14T05:35:58.298Z,4.47
2018-08-14T05:38:26.690Z,3.67
2018-08-14T05:40:55.120Z,4.83
2018-08-14T05:43:23.613Z,5.50
2018-08-14T05:45:51.943Z,3.67
2018-08-14T05:48:20.357Z,4.17
2018-08-14T05:50:48.736Z,5.43
2018-08-14T05:53:17.104Z,4.63
2018-08-14T05:55:45.548Z,3.27
2018-08-14T05:58:13.940Z,3.90
2018-08-14T06:00:42.320Z,3.20
2018-08-14T06:03:10.657Z,5.07
2018-08-14T06:05:38.986Z,2.73
2018-08-14T06:08:07.384Z,3.13
2018-08-14T06:10:35.741Z,4.63
2018-08-14T06:13:04.159Z,3.07
2018-08-14T06:15:32.462Z,4.80
2018-08-14T06:18:00.818Z,4.50
2018-08-14T06:20:29.109Z,2.83
2018-08-14T06:22:57.480Z,2.40
2018-08-14T06:25:25.800Z,4.80
2018-08-14T06:27:54.083Z,4.00
2018-08-14T06:30:22.461Z,2.50
2018-08-14T06:32:51.382Z,2.97
2018-08-14T06:35:19.842Z,3.63
2018-08-14T06:37:48.108Z,3.40
2018-08-14T06:40:17.475Z,2.60
2018-08-14T06:42:46.240Z,2.43
2018-08-14T06:45:16.007Z,3.43
2018-08-14T06:47:44.378Z,4.47
2018-08-14T06:50:15.546Z,3.63
2018-08-14T06:52:44.349Z,2.53
2018-08-14T06:55:12.875Z,2.47
2018-08-14T06:57:42.666Z,3.10
2018-08-14T07:00:14.140Z,2.80
2018-08-14T07:02:42.467Z,2.80
2018-08-14T07:05:11.035Z,3.40
2018-08-14T07:07:39.628Z,4.27
2018-08-14T07:10:09.575Z,3.83
2018-08-14T07:12:38.103Z,3.20
2018-08-14T07:15:16.084Z,7.80
2018-08-14T07:17:44.420Z,8.27
2018-08-14T07:20:13.198Z,4.53
2018-08-14T07:22:42.760Z,4.60
2018-08-14T07:25:11.615Z,4.30
2018-08-14T07:27:39.918Z,3.67
2018-08-14T07:30:11.751Z,5.50
2018-08-14T07:32:40.203Z,3.90
2018-08-14T07:35:08.832Z,3.07
2018-08-14T07:37:37.148Z,2.83
2018-08-14T07:40:05.865Z,5.90
2018-08-14T07:42:34.317Z,4.97
2018-08-14T07:45:03.428Z,5.83
2018-08-14T07:47:31.744Z,3.13
2018-08-14T07:50:00.081Z,3.57
2018-08-14T07:52:28.555Z,2.73
2018-08-14T07:54:56.916Z,2.57
2018-08-14T07:57:25.404Z,4.43
2018-08-14T07:59:53.734Z,2.70
2018-08-14T08:02:22.056Z,2.70
2018-08-14T08:04:50.575Z,2.93
2018-08-14T08:07:19.112Z,4.37
2018-08-14T08:09:47.462Z,4.37
2018-08-14T08:12:15.811Z,2.70
2018-08-14T08:14:44.171Z,4.03
2018-08-14T08:17:12.479Z,2.53
2018-08-14T08:19:40.818Z,2.40
2018-08-14T08:22:09.143Z,3.20
2018-08-14T08:24:37.558Z,5.23
2018-08-14T08:27:05.827Z,3.60
2018-08-14T08:29:34.164Z,3.70
2018-08-14T08:32:02.486Z,3.40
2018-08-14T08:34:30.820Z,2.87
2018-08-14T08:36:59.290Z,3.40
2018-08-14T08:39:27.623Z,4.70
2018-08-14T08:41:55.991Z,2.90
2018-08-14T08:44:24.265Z,2.87
2018-08-14T08:46:52.583Z,2.97
2018-08-14T08:49:20.945Z,4.20
2018-08-14T08:51:49.306Z,5.60
2018-08-14T08:54:17.620Z,3.37
2018-08-14T08:56:45.940Z,3.33
2018-08-14T08:59:14.269Z,3.27
2018-08-14T09:01:42.648Z,3.43
2018-08-14T09:04:11.003Z,3.70
2018-08-14T09:06:39.344Z,3.97
2018-08-14T09:09:10.439Z,4.13
2018-08-14T09:11:38.817Z,3.70
2018-08-14T09:14:07.986Z,4.03
2018-08-14T09:16:36.526Z,3.23
2018-08-14T09:19:05.260Z,3.87
2018-08-14T09:21:33.652Z,3.80
2018-08-14T09:24:02.133Z,4.43
2018-08-14T09:26:30.930Z,3.97
2018-08-14T09:28:59.278Z,3.43
2018-08-14T09:31:27.608Z,3.33
2018-08-14T09:33:56.054Z,3.57
2018-08-14T09:36:25.219Z,4.47
2018-08-14T09:38:53.610Z,4.90
2018-08-14T09:41:21.928Z,3.93
2018-08-14T09:43:50.252Z,4.37
2018-08-14T09:46:18.628Z,4.83
2018-08-14T09:48:46.932Z,4.43
2018-08-14T09:51:15.252Z,5.57
2018-08-14T09:53:43.611Z,6.43
2018-08-14T09:56:11.970Z,3.17
2018-08-14T09:58:40.267Z,3.50
2018-08-14T10:01:13.914Z,3.40
2018-08-14T10:03:47.660Z,3.90
2018-08-14T10:06:21.428Z,4.30
2018-08-14T10:08:51.494Z,3.47
2018-08-14T10:11:20.284Z,6.47
2018-08-14T10:13:48.589Z,5.80
2018-08-14T10:16:16.913Z,3.27
2018-08-14T10:18:45.242Z,2.73
2018-08-14T10:21:13.609Z,2.97
2018-08-14T10:23:42.011Z,3.30
2018-08-14T10:26:10.310Z,3.33
2018-08-14T10:28:38.757Z,3.30
2018-08-14T10:31:07.023Z,3.27
2018-08-14T10:33:35.356Z,4.90
2018-08-14T10:36:03.761Z,3.40
2018-08-14T10:38:32.065Z,3.17
2018-08-14T10:41:00.385Z,2.70
2018-08-14T10:43:28.765Z,3.10
2018-08-14T10:45:57.137Z,2.90
2018-08-14T10:48:25.514Z,3.57
2018-08-14T10:50:54.010Z,3.13
2018-08-14T10:53:22.300Z,2.60
2018-08-14T10:55:50.625Z,3.43
2018-08-14T10:58:18.932Z,2.40
2018-08-14T11:00:47.250Z,2.70
2018-08-14T11:03:15.560Z,5.33
2018-08-14T11:05:43.906Z,2.70
2018-08-14T11:08:12.213Z,3.80
2018-08-14T11:10:46.014Z,3.17
2018-08-14T11:13:14.226Z,3.20
2018-08-14T11:15:42.563Z,2.43
2018-08-14T11:18:10.868Z,2.80
2018-08-14T11:20:39.175Z,2.77
2018-08-14T11:23:07.576Z,2.83
2018-08-14T11:25:35.892Z,2.87
2018-08-14T11:28:04.247Z,8.00
2018-08-14T11:30:32.576Z,4.50
2018-08-14T11:33:00.944Z,2.40
2018-08-14T11:35:34.615Z,5.93
2018-08-14T11:38:02.935Z,2.97
2018-08-14T11:40:31.281Z,2.93
2018-08-14T11:42:59.586Z,3.33
2018-08-14T11:45:28.374Z,2.83
2018-08-14T11:47:56.729Z,2.60
2018-08-14T11:50:25.043Z,5.47
2018-08-14T11:52:54.447Z,2.20
2018-08-14T11:55:23.213Z,2.73
2018-08-14T11:57:52.321Z,2.57
2018-08-14T12:00:25.176Z,3.60
2018-08-14T12:02:55.025Z,4.87
2018-08-14T12:05:23.333Z,2.53
2018-08-14T12:07:51.663Z,2.50
2018-08-14T12:10:20.023Z,2.87
2018-08-14T12:12:48.401Z,4.13
2018-08-14T12:15:17.518Z,2.13
2018-08-14T12:17:46.833Z,2.20
2018-08-14T12:20:16.537Z,2.37
2018-08-14T12:22:45.003Z,3.60
2018-08-14T12:25:15.036Z,3.00
2018-08-14T12:27:43.541Z,2.03
2018-08-14T12:30:14.967Z,3.63
2018-08-14T12:32:43.546Z,1.83
2018-08-14T12:35:12.008Z,1.70
2018-08-14T12:37:40.361Z,3.47
2018-08-14T12:40:09.995Z,2.00
2018-08-14T12:42:38.507Z,1.97
2018-08-14T12:45:16.585Z,1.83
2018-08-14T12:47:44.970Z,1.77
2018-08-14T12:50:15.050Z,4.27
2018-08-14T12:52:43.410Z,3.57
2018-08-14T12:55:12.464Z,1.70
2018-08-14T12:57:40.780Z,1.77
2018-08-14T13:00:12.500Z,1.70
2018-08-14T13:02:40.808Z,2.63
2018-08-14T13:05:10.115Z,1.93
2018-08-14T13:07:38.509Z,1.97
2018-08-14T13:10:07.851Z,3.13
2018-08-14T13:12:36.231Z,1.70
2018-08-14T13:15:05.910Z,3.80
2018-08-14T13:17:34.191Z,1.70
2018-08-14T13:20:02.479Z,1.70
2018-08-14T13:22:30.841Z,2.63
2018-08-14T13:24:59.138Z,3.07
2018-08-14T13:27:27.493Z,1.93
2018-08-14T13:29:55.791Z,2.93
2018-08-14T13:32:24.121Z,2.00
2018-08-14T13:34:52.422Z,2.30
2018-08-14T13:37:20.748Z,2.00
2018-08-14T13:39:49.043Z,2.10
2018-08-14T13:42:17.351Z,3.17
2018-08-14T13:44:45.706Z,4.77
2018-08-14T13:47:14.023Z,1.90
2018-08-14T13:49:42.355Z,2.20
2018-08-14T13:52:10.768Z,3.53
2018-08-14T13:54:39.129Z,1.87
2018-08-14T13:57:07.420Z,2.00
2018-08-14T13:59:35.785Z,1.70
2018-08-14T14:02:04.092Z,2.00
2018-08-14T14:04:32.417Z,2.63
2018-08-14T14:07:00.698Z,2.00
2018-08-14T14:09:29.035Z,1.93
2018-08-14T14:11:57.353Z,2.43
2018-08-14T14:14:25.688Z,2.33
2018-08-14T14:16:54.059Z,3.30
2018-08-14T14:19:22.411Z,4.10
2018-08-14T14:21:50.688Z,2.60
2018-08-14T14:24:19.028Z,2.60
2018-08-14T14:26:47.331Z,5.40
2018-08-14T14:29:15.662Z,4.07
2018-08-14T14:31:44.030Z,3.07
2018-08-14T14:34:12.396Z,3.30
2018-08-14T14:36:40.873Z,2.67
2018-08-14T14:39:10.054Z,2.30
2018-08-14T14:41:38.353Z,4.40
2018-08-14T14:44:07.027Z,2.57
2018-08-14T14:46:35.465Z,2.20
2018-08-14T14:49:03.905Z,3.20
2018-08-14T14:51:32.238Z,2.30
2018-08-14T14:54:00.937Z,2.33
2018-08-14T14:56:29.241Z,2.40
2018-08-14T14:58:57.575Z,2.37
2018-08-14T15:01:25.898Z,3.03
2018-08-14T15:03:54.235Z,3.67
2018-08-14T15:06:22.584Z,2.50
2018-08-14T15:08:50.888Z,4.23
2018-08-14T15:11:19.192Z,2.20
2018-08-14T15:13:47.496Z,4.43
2018-08-14T15:16:15.796Z,2.83
2018-08-14T15:18:44.152Z,3.10
2018-08-14T15:21:12.438Z,2.27
2018-08-14T15:23:40.799Z,1.80
2018-08-14T15:26:09.100Z,3.23
2018-08-14T15:29:20.125Z,2.50
2018-08-14T15:31:50.263Z,4.53
2018-08-14T15:34:21.325Z,3.80
2018-08-14T15:36:51.766Z,2.30
2018-08-14T15:39:20.857Z,3.10
2018-08-14T15:41:49.321Z,2.47
2018-08-14T15:44:17.667Z,2.80
2018-08-14T15:46:46.014Z,3.57
2018-08-14T15:49:14.403Z,2.63
2018-08-14T15:51:43.094Z,3.37
2018-08-14T15:54:12.375Z,2.47
2018-08-14T15:56:40.998Z,2.43
2018-08-14T15:59:09.624Z,2.00
2018-08-14T16:01:38.104Z,1.93
2018-08-14T16:04:08.656Z,3.77
2018-08-14T16:06:37.071Z,3.00
2018-08-14T16:09:13.571Z,5.07
2018-08-14T16:11:42.259Z,3.00
2018-08-14T16:14:10.944Z,3.33
2018-08-14T16:16:39.303Z,2.83
2018-08-14T16:19:08.116Z,3.47
2018-08-14T16:21:36.520Z,4.17
2018-08-14T16:24:04.830Z,3.77
2018-08-14T16:26:33.225Z,4.20
2018-08-14T16:29:01.577Z,3.83
2018-08-14T16:31:29.898Z,3.53
2018-08-14T16:33:58.220Z,2.50
2018-08-14T16:36:26.630Z,3.33
2018-08-14T16:38:54.940Z,3.30
2018-08-14T16:41:23.293Z,3.67
2018-08-14T16:43:51.657Z,3.33
2018-08-14T16:46:19.965Z,3.03
2018-08-14T16:48:48.311Z,3.33
2018-08-14T16:51:16.659Z,4.77
2018-08-14T16:53:47.456Z,2.83
2018-08-14T16:56:16.056Z,5.80
2018-08-14T16:58:44.376Z,3.80
2018-08-14T17:01:12.699Z,3.63
2018-08-14T17:03:41.172Z,3.10
2018-08-14T17:06:09.538Z,3.53
2018-08-14T17:08:37.887Z,2.90
2018-08-14T17:11:06.419Z,3.07
2018-08-14T17:13:34.731Z,3.30
2018-08-14T17:16:03.071Z,3.30
2018-08-14T17:18:31.396Z,2.80
2018-08-14T17:20:58.664Z,6.70
2018-08-14T17:23:27.035Z,8.70
2018-08-14T17:25:55.413Z,8.00
2018-08-14T17:28:23.751Z,11.97
2018-08-14T17:30:52.124Z,10.07
2018-08-14T17:33:20.441Z,8.90
2018-08-14T17:35:48.752Z,6.07
2018-08-14T17:38:17.107Z,3.90
2018-08-14T17:40:45.372Z,3.60
2018-08-14T17:43:13.725Z,3.37
2018-08-14T17:45:42.074Z,3.77
2018-08-14T17:48:10.368Z,3.60
2018-08-14T17:50:38.706Z,5.00
2018-08-14T17:53:07.039Z,5.57
2018-08-14T17:55:35.364Z,4.57
2018-08-14T17:58:03.694Z,8.17
2018-08-14T18:00:32.979Z,5.20
2018-08-14T18:03:04.326Z,7.57
2018-08-14T18:05:32.661Z,5.90
2018-08-14T18:08:00.967Z,7.40
2018-08-14T18:10:29.295Z,10.03
2018-08-14T18:12:57.630Z,8.57
2018-08-14T18:15:25.973Z,17.17
2018-08-14T18:17:54.341Z,12.53
2018-08-14T18:20:24.742Z,12.63
2018-08-14T18:22:53.148Z,10.53
2018-08-14T18:25:22.670Z,11.27
2018-08-14T18:27:51.480Z,10.50
2018-08-14T18:30:20.670Z,9.83
2018-08-14T18:32:49.067Z,11.73
2018-08-14T18:35:17.812Z,12.33
2018-08-14T18:37:46.522Z,13.40
2018-08-14T18:40:16.946Z,12.07
2018-08-14T18:42:45.532Z,24.47
2018-08-14T18:45:15.732Z,20.90
2018-08-14T18:47:44.243Z,18.13
2018-08-14T18:50:13.520Z,13.90
2018-08-14T18:52:41.858Z,14.87
2018-08-14T18:55:12.034Z,11.97
2018-08-14T18:57:40.574Z,11.20
2018-08-14T19:00:15.290Z,13.50
2018-08-14T19:02:43.617Z,12.57
2018-08-14T19:05:11.925Z,11.73
2018-08-14T19:07:40.250Z,12.33
2018-08-14T19:10:09.175Z,12.00
2018-08-14T19:12:37.519Z,12.23
2018-08-14T19:15:12.396Z,13.87
2018-08-14T19:17:41.496Z,11.80
2018-08-14T19:20:10.568Z,10.27
2018-08-14T19:22:39.006Z,11.13
2018-08-14T19:25:07.503Z,11.23
2018-08-14T19:27:36.098Z,9.50
2018-08-14T19:30:06.205Z,8.80
2018-08-14T19:32:34.604Z,8.87
2018-08-14T19:35:02.900Z,8.63
2018-08-14T19:37:31.223Z,10.03
2018-08-14T19:39:59.643Z,9.40
2018-08-14T19:42:27.863Z,13.20
2018-08-14T19:44:56.150Z,13.50
2018-08-14T19:47:24.618Z,12.63
2018-08-14T19:49:53.005Z,9.03
2018-08-14T19:52:21.275Z,12.70
2018-08-14T19:54:49.604Z,16.17
2018-08-14T19:57:17.927Z,14.17
2018-08-14T19:59:46.323Z,11.13
2018-08-14T20:02:14.650Z,17.13
2018-08-14T20:04:42.971Z,13.77
2018-08-14T20:07:11.495Z,10.90
2018-08-14T20:09:39.828Z,27.57
2018-08-14T20:12:08.180Z,15.33
2018-08-14T20:14:36.494Z,13.43
2018-08-14T20:17:04.840Z,11.50
2018-08-14T20:19:34.092Z,15.03
2018-08-14T20:22:02.653Z,12.43
2018-08-14T20:24:31.003Z,15.00
2018-08-14T20:26:59.435Z,10.03
2018-08-14T20:29:27.784Z,10.30
2018-08-14T20:31:56.101Z,10.70
2018-08-14T20:34:24.435Z,10.20
2018-08-14T20:36:52.759Z,9.53
2018-08-14T20:39:21.071Z,13.67
2018-08-14T20:41:49.400Z,10.37
2018-08-14T20:44:17.804Z,11.20
2018-08-14T20:46:46.081Z,10.53
2018-08-14T20:49:14.408Z,13.13
2018-08-14T20:51:42.712Z,11.40
2018-08-14T20:54:11.659Z,11.37
2018-08-14T20:56:40.071Z,9.67
2018-08-14T20:59:08.391Z,10.07
2018-08-14T21:01:36.956Z,11.10
2018-08-14T21:04:05.308Z,11.13
2018-08-14T21:06:33.667Z,17.63
2018-08-14T21:09:02.037Z,12.03
2018-08-14T21:11:30.355Z,10.40
2018-08-14T21:13:58.672Z,11.30
2018-08-14T21:16:27.518Z,11.67
2018-08-14T21:18:57.033Z,11.73
2018-08-14T21:21:25.812Z,11.30
2018-08-14T21:23:54.620Z,12.63
2018-08-14T21:26:23.388Z,11.37
2018-08-14T21:28:51.768Z,10.90
2018-08-14T21:31:20.093Z,12.07
2018-08-14T21:33:48.744Z,11.67
2018-08-14T21:36:17.071Z,11.80
2018-08-14T21:38:45.481Z,13.97
2018-08-14T21:41:13.775Z,13.00
2018-08-14T21:43:42.125Z,12.00
2018-08-14T21:46:10.479Z,12.30
2018-08-14T21:48:38.823Z,11.83
2018-08-14T21:51:07.352Z,13.37
2018-08-14T21:53:35.879Z,14.63
2018-08-14T21:56:04.204Z,13.87
2018-08-14T21:58:32.511Z,12.50
2018-08-14T22:01:04.882Z,12.87
2018-08-14T22:03:34.292Z,12.53
2018-08-14T22:06:02.760Z,13.67
2018-08-14T22:08:31.572Z,17.67
2018-08-14T22:10:59.877Z,12.70
2018-08-14T22:13:28.238Z,12.03
2018-08-14T22:15:56.548Z,12.57
2018-08-14T22:18:24.908Z,12.17
2018-08-14T22:20:54.301Z,13.03
2018-08-14T22:23:22.669Z,12.87
2018-08-14T22:25:51.008Z,16.47
2018-08-14T22:28:19.434Z,12.83
2018-08-14T22:30:47.756Z,13.87
2018-08-14T22:33:16.112Z,13.00
2018-08-14T22:35:44.430Z,13.13
2018-08-14T22:38:12.785Z,12.17
2018-08-14T22:40:41.169Z,14.90
2018-08-14T22:43:09.652Z,13.10
2018-08-14T22:45:38.015Z,14.40
2018-08-14T22:48:06.366Z,13.33
2018-08-14T22:50:34.711Z,12.30
2018-08-14T22:53:03.008Z,13.20
2018-08-14T22:55:31.314Z,13.53
2018-08-14T22:57:59.686Z,15.43
2018-08-14T23:00:28.071Z,12.90
2018-08-14T23:02:56.391Z,14.17
2018-08-14T23:05:24.762Z,16.57
2018-08-14T23:07:53.079Z,14.80
2018-08-14T23:10:21.404Z,14.67
2018-08-14T23:12:49.782Z,14.47
2018-08-14T23:15:18.124Z,16.90
2018-08-14T23:17:46.485Z,12.00
2018-08-14T23:20:14.899Z,15.10
2018-08-14T23:22:43.210Z,14.23
2018-08-14T23:25:12.415Z,15.63
2018-08-14T23:27:40.739Z,14.37
2018-08-14T23:30:12.823Z,16.00
2018-08-14T23:32:41.141Z,18.27
2018-08-14T23:35:09.823Z,14.90
2018-08-14T23:37:38.382Z,17.27
2018-08-14T23:40:08.442Z,17.23
2018-08-14T23:42:36.907Z,18.80
2018-08-14T23:45:05.890Z,17.87
2018-08-14T23:47:34.463Z,15.93
2018-08-14T23:50:02.853Z,17.00
2018-08-14T23:52:31.187Z,15.70
2018-08-14T23:54:59.801Z,16.07
2018-08-14T23:57:28.146Z,15.87
2018-08-14T23:59:56.456Z,15.40
